createdAt,value
2022-12-03T00:00:35.119Z,-3.06
2022-12-03T00:02:40.636Z,-3.08
2022-12-03T00:04:46.319Z,-3.09
2022-12-03T00:06:51.966Z,-3.1
2022-12-03T00:08:57.322Z,-3.15
2022-12-03T00:11:02.630Z,-3.14
2022-12-03T00:13:07.813Z,-3.08
2022-12-03T00:15:12.903Z,-3.08
2022-12-03T00:17:17.997Z,-3.07
2022-12-03T00:19:23.411Z,-3.08
2022-12-03T00:21:28.554Z,-3.12
2022-12-03T00:23:37.142Z,-3.08
2022-12-03T00:25:46.464Z,-3.08
2022-12-03T00:27:51.435Z,-3.05
2022-12-03T00:29:56.877Z,-3.01
2022-12-03T00:32:02.177Z,-3.05
2022-12-03T00:34:07.877Z,-3.1
2022-12-03T00:36:13.285Z,-3.06
2022-12-03T00:38:18.794Z,-3.01
2022-12-03T00:40:24.027Z,-2.99
2022-12-03T00:42:29.387Z,-3.02
2022-12-03T00:44:34.710Z,-3.07
2022-12-03T00:46:39.995Z,-3.05
2022-12-03T00:48:45.376Z,-3.04
2022-12-03T00:50:50.794Z,-3.04
2022-12-03T00:52:56.373Z,-3.07
2022-12-03T00:55:01.793Z,-3.04
2022-12-03T00:57:07.102Z,-3.04
2022-12-03T00:59:12.229Z,-2.98
2022-12-03T01:01:17.313Z,-2.99
2022-12-03T01:03:23.070Z,-3
2022-12-03T01:05:28.300Z,-2.96
2022-12-03T01:07:33.633Z,-2.98
2022-12-03T01:09:39.143Z,-2.98
2022-12-03T01:11:44.129Z,-2.97
2022-12-03T01:13:49.336Z,-2.97
2022-12-03T01:15:54.633Z,-3.01
2022-12-03T01:18:00.246Z,-2.98
2022-12-03T01:20:05.208Z,-2.95
2022-12-03T01:22:10.439Z,-2.93
2022-12-03T01:24:15.581Z,-2.99
2022-12-03T01:26:21.130Z,-3.03
2022-12-03T01:28:26.365Z,-2.99
2022-12-03T01:30:31.715Z,-2.99
2022-12-03T01:32:36.836Z,-3.01
2022-12-03T01:34:41.970Z,-3.04
2022-12-03T01:36:47.078Z,-3.01
2022-12-03T01:38:52.244Z,-3.01
2022-12-03T01:40:57.209Z,-2.97
2022-12-03T01:43:02.358Z,-2.98
2022-12-03T01:45:07.328Z,-2.99
2022-12-03T01:47:12.512Z,-2.98
2022-12-03T01:49:17.582Z,-2.98
2022-12-03T01:51:22.695Z,-2.95
2022-12-03T01:53:28.049Z,-2.97
2022-12-03T01:55:33.267Z,-2.97
2022-12-03T01:57:38.473Z,-2.97
2022-12-03T01:59:43.663Z,-2.95
2022-12-03T02:01:48.895Z,-2.99
2022-12-03T02:03:54.405Z,-2.96
2022-12-03T02:06:00.259Z,-2.97
2022-12-03T02:08:05.359Z,-2.94
2022-12-03T02:10:10.736Z,-2.98
2022-12-03T02:12:18.914Z,-2.94
2022-12-03T02:14:23.878Z,-2.91
2022-12-03T02:16:29.081Z,-2.9
2022-12-03T02:18:34.772Z,-2.87
2022-12-03T02:20:39.958Z,-2.88
2022-12-03T02:22:44.963Z,-2.85
2022-12-03T02:24:50.249Z,-2.88
2022-12-03T02:26:56.923Z,-2.89
2022-12-03T02:29:01.996Z,-2.88
2022-12-03T02:31:07.188Z,-2.88
2022-12-03T02:33:12.409Z,-2.91
2022-12-03T02:35:17.438Z,-2.9
2022-12-03T02:37:22.426Z,-2.93
2022-12-03T02:39:27.556Z,-2.91
2022-12-03T02:41:32.783Z,-2.94
2022-12-03T02:43:38.081Z,-2.91
2022-12-03T02:45:43.247Z,-2.9
2022-12-03T02:47:48.355Z,-2.88
2022-12-03T02:49:53.607Z,-2.9
2022-12-03T02:51:58.643Z,-2.86
2022-12-03T02:54:03.726Z,-2.85
2022-12-03T02:56:08.773Z,-2.87
2022-12-03T02:58:13.924Z,-2.87
2022-12-03T03:00:18.952Z,-2.86
2022-12-03T03:02:24.518Z,-2.87
2022-12-03T03:04:30.381Z,-2.84
2022-12-03T03:06:35.424Z,-2.85
2022-12-03T03:08:40.466Z,-2.87
2022-12-03T03:10:45.691Z,-2.89
2022-12-03T03:12:51.182Z,-2.88
2022-12-03T03:14:56.434Z,-2.84
2022-12-03T03:17:01.546Z,-2.85
2022-12-03T03:19:06.622Z,-2.87
2022-12-03T03:21:15.211Z,-2.87
2022-12-03T03:23:20.016Z,-2.83
2022-12-03T03:25:25.201Z,-2.82
2022-12-03T03:27:30.476Z,-2.81
2022-12-03T03:29:35.476Z,-2.8
2022-12-03T03:31:40.499Z,-2.78
2022-12-03T03:33:45.969Z,-2.8
2022-12-03T03:35:50.991Z,-2.82
2022-12-03T03:37:56.100Z,-2.84
2022-12-03T03:40:01.143Z,-2.86
2022-12-03T03:42:06.125Z,-2.8
2022-12-03T03:44:11.170Z,-2.83
2022-12-03T03:46:16.336Z,-2.85
2022-12-03T03:48:22.082Z,-2.81
2022-12-03T03:50:27.239Z,-2.79
2022-12-03T03:52:32.297Z,-2.82
2022-12-03T03:54:37.613Z,-2.81
2022-12-03T03:56:42.754Z,-2.8
2022-12-03T03:58:48.082Z,-2.79
2022-12-03T04:00:53.389Z,-2.82
2022-12-03T04:02:58.867Z,-2.81
2022-12-03T04:05:04.135Z,-2.82
2022-12-03T04:07:09.165Z,-2.8
2022-12-03T04:09:14.092Z,-2.81
2022-12-03T04:11:19.314Z,-2.79
2022-12-03T04:13:24.418Z,-2.8
2022-12-03T04:15:29.620Z,-2.84
2022-12-03T04:17:34.862Z,-2.8
2022-12-03T04:19:40.155Z,-2.74
2022-12-03T04:21:45.267Z,-2.78
2022-12-03T04:23:50.400Z,-2.76
2022-12-03T04:25:55.510Z,-2.75
2022-12-03T04:28:00.696Z,-2.76
2022-12-03T04:30:05.872Z,-2.74
2022-12-03T04:32:10.954Z,-2.73
2022-12-03T04:34:16.123Z,-2.72
2022-12-03T04:36:21.410Z,-2.69
2022-12-03T04:38:26.598Z,-2.74
2022-12-03T04:40:31.757Z,-2.76
2022-12-03T04:42:36.773Z,-2.74
2022-12-03T04:44:41.785Z,-2.74
2022-12-03T04:46:46.993Z,-2.76
2022-12-03T04:48:52.243Z,-2.75
2022-12-03T04:50:57.527Z,-2.78
2022-12-03T04:53:02.501Z,-2.78
2022-12-03T04:55:07.652Z,-2.78
2022-12-03T04:57:12.997Z,-2.74
2022-12-03T04:59:18.297Z,-2.72
2022-12-03T05:01:23.511Z,-2.69
2022-12-03T05:03:29.232Z,-2.7
2022-12-03T05:05:34.720Z,-2.73
2022-12-03T05:07:40.076Z,-2.75
2022-12-03T05:09:46.087Z,-2.7
2022-12-03T05:11:51.056Z,-2.74
2022-12-03T05:13:56.384Z,-2.73
2022-12-03T05:16:01.501Z,-2.71
2022-12-03T05:18:06.541Z,-2.72
2022-12-03T05:20:11.873Z,-2.69
2022-12-03T05:22:17.160Z,-2.64
2022-12-03T05:24:22.356Z,-2.63
2022-12-03T05:26:27.449Z,-2.64
2022-12-03T05:28:32.716Z,-2.7
2022-12-03T05:30:38.181Z,-2.7
2022-12-03T05:32:44.413Z,-2.67
2022-12-03T05:34:49.644Z,-2.71
2022-12-03T05:36:56.578Z,-2.69
2022-12-03T05:39:02.063Z,-2.65
2022-12-03T05:41:07.599Z,-2.61
2022-12-03T05:43:15.737Z,-2.62
2022-12-03T05:45:20.886Z,-2.64
2022-12-03T05:47:26.106Z,-2.61
2022-12-03T05:49:31.370Z,-2.63
2022-12-03T05:51:36.495Z,-2.61
2022-12-03T05:53:41.519Z,-2.54
2022-12-03T05:55:47.226Z,-2.56
2022-12-03T05:57:52.677Z,-2.57
2022-12-03T05:59:57.687Z,-2.56
2022-12-03T06:02:03.259Z,-2.58
2022-12-03T06:04:08.838Z,-2.6
2022-12-03T06:06:14.347Z,-2.62
2022-12-03T06:08:19.606Z,-2.65
2022-12-03T06:10:24.634Z,-2.59
2022-12-03T06:12:29.657Z,-2.58
2022-12-03T06:14:35.342Z,-2.59
2022-12-03T06:16:40.914Z,-2.57
2022-12-03T06:18:46.624Z,-2.54
2022-12-03T06:20:52.099Z,-2.52
2022-12-03T06:22:57.114Z,-2.51
2022-12-03T06:25:06.305Z,-2.54
2022-12-03T06:27:12.225Z,-2.5
2022-12-03T06:29:17.373Z,-2.52
2022-12-03T06:33:47.181Z,-2.5
2022-12-03T06:35:55.259Z,-2.49
2022-12-03T06:38:00.322Z,-2.47
2022-12-03T06:40:05.366Z,-2.44
2022-12-03T06:42:10.947Z,-2.45
2022-12-03T06:44:16.030Z,-2.42
2022-12-03T06:46:21.385Z,-2.41
2022-12-03T06:48:27.059Z,-2.37
2022-12-03T06:50:32.395Z,-2.44
2022-12-03T06:52:37.740Z,-2.46
2022-12-03T06:54:43.049Z,-2.4
2022-12-03T06:56:48.106Z,-2.38
2022-12-03T06:58:53.308Z,-2.39
2022-12-03T07:00:58.452Z,-2.36
2022-12-03T07:03:03.740Z,-2.38
2022-12-03T07:05:09.602Z,-2.35
2022-12-03T07:07:14.649Z,-2.34
2022-12-03T07:09:19.724Z,-2.33
2022-12-03T07:11:25.042Z,-2.35
2022-12-03T07:13:30.238Z,-2.38
2022-12-03T07:15:35.397Z,-2.37
2022-12-03T07:17:40.584Z,-2.36
2022-12-03T07:19:45.807Z,-2.39
2022-12-03T07:21:50.901Z,-2.39
2022-12-03T07:23:56.130Z,-2.37
2022-12-03T07:26:01.499Z,-2.41
2022-12-03T07:28:06.828Z,-2.37
2022-12-03T07:30:12.201Z,-2.43
2022-12-03T07:32:17.586Z,-2.4
2022-12-03T07:34:22.883Z,-2.38
2022-12-03T07:36:28.088Z,-2.38
2022-12-03T07:38:33.142Z,-2.39
2022-12-03T07:40:38.135Z,-2.4
2022-12-03T07:42:43.464Z,-2.3
2022-12-03T07:44:51.259Z,-2.26
2022-12-03T07:46:58.365Z,-2.31
2022-12-03T07:49:03.855Z,-2.3
2022-12-03T07:51:12.895Z,-2.32
2022-12-03T07:53:20.334Z,-2.29
2022-12-03T07:55:25.705Z,-2.25
2022-12-03T07:57:30.931Z,-2.21
2022-12-03T07:59:35.973Z,-2.24
2022-12-03T08:01:41.371Z,-2.21
2022-12-03T08:03:46.847Z,-2.19
2022-12-03T08:05:52.143Z,-2.18
2022-12-03T08:08:00.846Z,-2.11
2022-12-03T08:10:09.697Z,-2.09
2022-12-03T08:12:17.226Z,-2.07
2022-12-03T08:14:23.123Z,-2.09
2022-12-03T08:16:33.357Z,-2.1
2022-12-03T08:18:39.391Z,-2.16
2022-12-03T08:20:44.896Z,-2.08
2022-12-03T08:22:50.630Z,-2.09
2022-12-03T08:24:57.303Z,-2.12
2022-12-03T08:27:03.908Z,-2.22
2022-12-03T08:29:11.451Z,-2.17
2022-12-03T08:31:19.211Z,-2.15
2022-12-03T08:33:30.951Z,-2.1
2022-12-03T08:35:36.518Z,-2.08
2022-12-03T08:37:41.652Z,-2.06
2022-12-03T08:39:47.296Z,-1.95
2022-12-03T08:41:52.847Z,-1.94
2022-12-03T08:43:58.598Z,-1.9
2022-12-03T08:46:04.286Z,-1.93
2022-12-03T08:48:10.207Z,-1.89
2022-12-03T08:50:15.780Z,-1.88
2022-12-03T08:54:51.231Z,-1.68
2022-12-03T08:56:59.467Z,-1.52
2022-12-03T08:59:05.095Z,-1.55
2022-12-03T09:01:13.892Z,-1.54
2022-12-03T09:03:19.834Z,-1.5
2022-12-03T09:05:25.413Z,-1.51
2022-12-03T09:07:30.783Z,-1.53
2022-12-03T09:09:36.691Z,-1.55
2022-12-03T09:11:42.265Z,-1.6
2022-12-03T09:13:48.027Z,-1.54
2022-12-03T09:15:54.358Z,-1.64
2022-12-03T09:18:00.934Z,-1.54
2022-12-03T09:20:06.803Z,-1.56
2022-12-03T09:22:12.983Z,-1.5
2022-12-03T09:24:19.557Z,-1.45
2022-12-03T09:26:25.117Z,-1.45
2022-12-03T09:28:30.407Z,-1.42
2022-12-03T09:30:36.062Z,-1.39
2022-12-03T09:32:42.646Z,-1.37
2022-12-03T09:34:49.147Z,-1.4
2022-12-03T09:36:55.878Z,-1.2
2022-12-03T09:39:01.384Z,-1.16
2022-12-03T09:41:06.919Z,-1.14
2022-12-03T09:43:13.552Z,-1.12
2022-12-03T09:45:19.342Z,-1.08
2022-12-03T09:47:26.803Z,-1.04
2022-12-03T09:49:32.544Z,-1.12
2022-12-03T09:51:38.545Z,-1.1
2022-12-03T09:53:44.413Z,-0.99
2022-12-03T09:55:50.772Z,-0.86
2022-12-03T09:57:56.889Z,-0.91
2022-12-03T10:00:03.427Z,-0.91
2022-12-03T10:02:08.755Z,-1.14
2022-12-03T10:06:41.035Z,-1.02
2022-12-03T10:08:50.684Z,-0.95
2022-12-03T10:10:56.372Z,-1
2022-12-03T10:13:02.469Z,-0.96
2022-12-03T10:15:08.157Z,-1.01
2022-12-03T10:17:13.753Z,-0.95
2022-12-03T10:19:22.797Z,-0.94
2022-12-03T10:21:28.341Z,-0.85
2022-12-03T10:23:33.811Z,-0.84
2022-12-03T10:25:39.494Z,-0.77
2022-12-03T10:27:44.793Z,-0.81
2022-12-03T10:29:50.365Z,-0.83
2022-12-03T10:31:57.413Z,-0.77
2022-12-03T10:34:03.049Z,-0.82
2022-12-03T10:36:08.499Z,-0.9
2022-12-03T10:38:14.127Z,-0.95
2022-12-03T10:40:20.150Z,-0.86
2022-12-03T10:42:25.644Z,-0.86
2022-12-03T10:44:30.930Z,-0.88
2022-12-03T10:46:36.840Z,-0.87
2022-12-03T10:48:43.097Z,-0.77
2022-12-03T10:50:48.335Z,-0.74
2022-12-03T10:52:55.141Z,-0.63
2022-12-03T10:55:00.887Z,-0.77
2022-12-03T10:57:06.661Z,-0.69
2022-12-03T10:59:12.766Z,-0.68
2022-12-03T11:01:20.365Z,-0.55
2022-12-03T11:03:26.383Z,-0.55
2022-12-03T11:05:32.314Z,-0.51
2022-12-03T11:09:58.242Z,-0.52
2022-12-03T11:14:24.277Z,-0.46
2022-12-03T11:18:53.323Z,-0.42
2022-12-03T11:21:00.024Z,-0.49
2022-12-03T11:23:11.303Z,-0.46
2022-12-03T11:25:21.849Z,-0.38
2022-12-03T11:27:27.784Z,-0.41
2022-12-03T11:29:36.282Z,-0.34
2022-12-03T11:31:42.013Z,-0.3
2022-12-03T11:33:49.941Z,-0.27
2022-12-03T11:35:57.776Z,-0.32
2022-12-03T11:38:07.094Z,-0.36
2022-12-03T11:40:15.601Z,-0.33
2022-12-03T11:42:27.105Z,-0.29
2022-12-03T11:46:54.954Z,-0.26
2022-12-03T11:49:01.961Z,-0.27
2022-12-03T11:51:11.985Z,-0.24
2022-12-03T11:53:17.872Z,-0.22
2022-12-03T11:55:27.034Z,-0.16
2022-12-03T11:57:32.640Z,-0.14
2022-12-03T11:59:38.401Z,-0.15
2022-12-03T12:01:44.372Z,-0.09
2022-12-03T12:03:58.197Z,-0.23
2022-12-03T12:06:09.926Z,-0.16
2022-12-03T12:08:21.036Z,-0.14
2022-12-03T12:10:26.955Z,-0.06
2022-12-03T12:12:32.931Z,-0.07
2022-12-03T12:17:00.694Z,-0.06
2022-12-03T12:19:06.483Z,-0.07
2022-12-03T12:21:14.999Z,0
2022-12-03T12:23:20.521Z,0.16
2022-12-03T12:25:26.328Z,0.27
2022-12-03T12:27:33.039Z,0.36
2022-12-03T12:29:45.247Z,0.29
2022-12-03T12:31:54.366Z,0.25
2022-12-03T12:34:00.507Z,0.2
2022-12-03T12:36:06.028Z,0.22
2022-12-03T12:38:14.861Z,0.22
2022-12-03T12:40:20.432Z,0.22
2022-12-03T12:42:33.648Z,0.14
2022-12-03T12:44:39.650Z,0.13
2022-12-03T12:49:10.278Z,0.15
2022-12-03T12:51:16.261Z,0.13
2022-12-03T12:53:24.838Z,0.17
2022-12-03T12:55:31.434Z,0.14
2022-12-03T12:57:40.605Z,0.15
2022-12-03T12:59:51.831Z,0.08
2022-12-03T13:02:10.056Z,0.11
2022-12-03T13:04:23.776Z,0.15
2022-12-03T13:06:31.186Z,0.13
2022-12-03T13:08:42.019Z,0.15
2022-12-03T13:11:04.106Z,0.07
2022-12-03T13:13:13.553Z,0.07
2022-12-03T13:15:29.777Z,0.05
2022-12-03T13:17:35.366Z,0.04
2022-12-03T13:19:49.514Z,0.06
2022-12-03T13:22:22.628Z,0.07
2022-12-03T13:24:29.084Z,0.09
2022-12-03T13:26:38.907Z,0.07
2022-12-03T13:28:44.942Z,0.1
2022-12-03T13:30:50.474Z,0.07
2022-12-03T13:32:55.912Z,0.05
2022-12-03T13:35:01.505Z,0.08
2022-12-03T13:39:27.201Z,0.09
2022-12-03T13:41:32.720Z,0.06
2022-12-03T13:43:42.834Z,0.06
2022-12-03T13:45:49.229Z,0.06
2022-12-03T13:47:54.902Z,0.03
2022-12-03T13:50:00.474Z,0.06
2022-12-03T13:52:06.943Z,0.05
2022-12-03T13:54:15.975Z,0.05
2022-12-03T13:56:21.528Z,0.03
2022-12-03T13:58:27.126Z,0.03
2022-12-03T14:00:36.005Z,0.05
2022-12-03T14:02:41.943Z,0.04
2022-12-03T14:04:47.948Z,0.01
2022-12-03T14:07:02.282Z,0.02
2022-12-03T14:09:07.734Z,0.02
2022-12-03T14:11:13.178Z,-0.02
2022-12-03T14:13:18.483Z,-0.01
2022-12-03T14:15:23.938Z,-0.02
2022-12-03T14:17:31.746Z,-0.03
2022-12-03T14:19:37.227Z,-0.03
2022-12-03T14:21:43.063Z,-0.03
2022-12-03T14:23:48.599Z,-0.04
2022-12-03T14:25:54.193Z,-0.04
2022-12-03T14:27:59.831Z,-0.03
2022-12-03T14:30:06.222Z,-0.02
2022-12-03T14:32:12.204Z,-0.03
2022-12-03T14:34:18.458Z,-0.04
2022-12-03T14:36:33.286Z,-0.05
2022-12-03T14:38:52.921Z,-0.05
2022-12-03T14:40:58.500Z,-0.08
2022-12-03T14:43:04.111Z,-0.05
2022-12-03T14:47:39.265Z,-0.03
2022-12-03T14:49:44.858Z,-0.06
2022-12-03T14:51:50.847Z,-0.08
2022-12-03T14:53:56.513Z,-0.09
2022-12-03T14:56:05.006Z,-0.09
2022-12-03T14:58:10.349Z,-0.09
2022-12-03T15:00:21.149Z,-0.09
2022-12-03T15:02:26.664Z,-0.09
2022-12-03T15:04:35.574Z,-0.07
2022-12-03T15:06:42.403Z,-0.07
2022-12-03T15:08:48.182Z,-0.08
2022-12-03T15:10:55.545Z,-0.08
2022-12-03T15:13:01.701Z,-0.08
2022-12-03T15:15:10.027Z,-0.06
2022-12-03T15:17:54.971Z,-0.05
2022-12-03T15:20:08.651Z,-0.07
2022-12-03T15:22:18.778Z,-0.08
2022-12-03T15:24:26.986Z,-0.1
2022-12-03T15:26:33.107Z,-0.09
2022-12-03T15:28:45.393Z,-0.09
2022-12-03T15:30:57.420Z,-0.08
2022-12-03T15:33:04.198Z,-0.07
2022-12-03T15:35:12.236Z,-0.07
2022-12-03T15:37:20.743Z,-0.07
2022-12-03T15:39:28.126Z,-0.06
2022-12-03T15:41:34.405Z,-0.05
2022-12-03T15:43:40.558Z,-0.03
2022-12-03T15:45:46.573Z,-0.02
2022-12-03T15:47:53.458Z,-0.02
2022-12-03T15:50:00.662Z,-0.02
2022-12-03T15:52:06.790Z,-0.05
2022-12-03T15:54:16.769Z,-0.04
2022-12-03T15:56:22.682Z,-0.02
2022-12-03T15:58:29.107Z,-0.03
2022-12-03T16:00:38.018Z,-0.02
2022-12-03T16:02:49.210Z,0
2022-12-03T16:05:00.179Z,-0.01
2022-12-03T16:07:05.848Z,0
2022-12-03T16:09:15.344Z,0.02
2022-12-03T16:11:33.935Z,0.03
2022-12-03T16:13:41.929Z,0.01
2022-12-03T16:15:47.648Z,-0.01
2022-12-03T16:17:53.407Z,0.02
2022-12-03T16:19:59.747Z,0.01
2022-12-03T16:22:06.906Z,0.03
2022-12-03T16:24:13.718Z,0.01
2022-12-03T16:26:19.071Z,0.02
2022-12-03T16:28:28.115Z,0.02
2022-12-03T16:30:39.001Z,0.04
2022-12-03T16:32:46.167Z,0.02
2022-12-03T16:34:53.256Z,0.04
2022-12-03T16:37:00.080Z,0.05
2022-12-03T16:39:07.489Z,0.02
2022-12-03T16:41:13.485Z,0.03
2022-12-03T16:43:19.744Z,0.03
2022-12-03T16:45:31.088Z,0.01
2022-12-03T16:47:37.659Z,0
2022-12-03T16:49:43.456Z,0.01
2022-12-03T16:51:51.230Z,0.03
2022-12-03T16:53:59.725Z,0.04
2022-12-03T16:56:07.228Z,0.06
2022-12-03T16:58:13.317Z,0.05
2022-12-03T17:00:19.094Z,0.06
2022-12-03T17:02:24.647Z,0.06
2022-12-03T17:04:34.146Z,0.06
2022-12-03T17:06:43.990Z,0.08
2022-12-03T17:08:51.168Z,0.07
2022-12-03T17:11:03.282Z,0.06
2022-12-03T17:13:11.315Z,0.07
2022-12-03T17:15:17.648Z,0.08
2022-12-03T17:17:30.017Z,0.07
2022-12-03T17:19:37.701Z,0.07
2022-12-03T17:21:47.804Z,0.07
2022-12-03T17:23:57.299Z,0.05
2022-12-03T17:26:05.338Z,0.07
2022-12-03T17:28:12.024Z,0.06
2022-12-03T17:30:22.267Z,0.06
2022-12-03T17:32:28.271Z,0.08
2022-12-03T17:34:34.284Z,0.07
2022-12-03T17:36:41.728Z,0.02
2022-12-03T17:41:18.955Z,0.03
2022-12-03T17:43:26.556Z,0.04
2022-12-03T17:47:57.255Z,0.1
2022-12-03T17:50:09.674Z,0.1
2022-12-03T17:52:16.170Z,0.11
2022-12-03T17:57:33.663Z,0.11
2022-12-03T17:59:46.975Z,0.1
2022-12-03T18:01:58.047Z,0.11
2022-12-03T18:04:04.852Z,0.08
2022-12-03T18:06:16.915Z,0.08
2022-12-03T18:08:27.300Z,0.07
2022-12-03T18:16:04.753Z,0.1
2022-12-03T18:18:13.999Z,0.1
2022-12-03T18:20:26.420Z,0.12
2022-12-03T18:22:41.620Z,0.13
2022-12-03T18:24:51.830Z,0.14
2022-12-03T18:27:08.012Z,0.15
2022-12-03T18:29:19.633Z,0.15
2022-12-03T18:31:29.330Z,0.14
2022-12-03T18:33:36.564Z,0.17
2022-12-03T18:35:44.926Z,0.19
2022-12-03T18:37:52.551Z,0.19
2022-12-03T18:42:24.601Z,0.18
2022-12-03T18:47:04.724Z,0.2
2022-12-03T18:49:25.203Z,0.22
2022-12-03T18:51:38.585Z,0.21
2022-12-03T18:54:02.865Z,0.18
2022-12-03T18:56:19.213Z,0.2
2022-12-03T18:58:26.842Z,0.22
2022-12-03T19:00:34.901Z,0.24
2022-12-03T19:05:29.974Z,0.25
2022-12-03T19:07:37.093Z,0.27
2022-12-03T19:09:49.464Z,0.29
2022-12-03T19:12:00.382Z,0.31
2022-12-03T19:14:20.587Z,0.35
2022-12-03T19:16:35.860Z,0.37
2022-12-03T19:18:44.193Z,0.36
2022-12-03T19:23:16.881Z,0.41
2022-12-03T19:27:52.460Z,0.4
2022-12-03T19:30:01.356Z,0.4
2022-12-03T19:32:10.105Z,0.4
2022-12-03T19:34:17.409Z,0.45
2022-12-03T19:36:26.004Z,0.47
2022-12-03T19:38:35.001Z,0.46
2022-12-03T19:40:43.338Z,0.43
2022-12-03T19:43:00.115Z,0.44
2022-12-03T19:45:13.680Z,0.47
2022-12-03T19:47:33.511Z,0.49
2022-12-03T19:49:42.899Z,0.5
2022-12-03T19:51:53.501Z,0.52
2022-12-03T19:54:03.413Z,0.53
2022-12-03T19:56:13.709Z,0.52
2022-12-03T19:58:25.111Z,0.54
2022-12-03T20:00:32.326Z,0.55
2022-12-03T20:02:41.655Z,0.55
2022-12-03T20:05:12.384Z,0.56
2022-12-03T20:07:40.379Z,0.56
2022-12-03T20:09:47.508Z,0.58
2022-12-03T20:11:59.022Z,0.57
2022-12-03T20:14:09.686Z,0.59
2022-12-03T20:16:29.688Z,0.56
2022-12-03T20:18:43.771Z,0.59
2022-12-03T20:20:55.060Z,0.59
2022-12-03T20:23:17.440Z,0.58
2022-12-03T20:25:28.390Z,0.58
2022-12-03T20:27:49.679Z,0.58
2022-12-03T20:30:03.190Z,0.58
2022-12-03T20:32:15.786Z,0.55
2022-12-03T20:34:30.331Z,0.5
2022-12-03T20:39:03.735Z,0.52
2022-12-03T20:41:12.382Z,0.53
2022-12-03T20:48:21.287Z,0.46
2022-12-03T20:53:16.568Z,0.47
2022-12-03T20:55:49.678Z,0.46
2022-12-03T20:57:58.678Z,0.43
2022-12-03T21:00:11.274Z,0.43
2022-12-03T21:02:23.404Z,0.37
2022-12-03T21:04:35.171Z,0.35
2022-12-03T21:06:50.164Z,0.34
2022-12-03T21:08:59.603Z,0.35
2022-12-03T21:11:24.261Z,0.34
2022-12-03T21:13:32.919Z,0.36
2022-12-03T21:15:46.256Z,0.33
2022-12-03T21:17:55.087Z,0.33
2022-12-03T21:20:03.361Z,0.32
2022-12-03T21:22:12.510Z,0.34
2022-12-03T21:24:23.725Z,0.31
2022-12-03T21:26:35.068Z,0.32
2022-12-03T21:28:44.952Z,0.3
2022-12-03T21:30:54.031Z,0.32
2022-12-03T21:33:01.918Z,0.32
2022-12-03T21:35:08.840Z,0.31
2022-12-03T21:37:17.134Z,0.28
2022-12-03T21:39:25.029Z,0.27
2022-12-03T21:41:31.900Z,0.29
2022-12-03T21:43:37.979Z,0.31
2022-12-03T21:45:47.603Z,0.29
2022-12-03T21:47:58.230Z,0.29
2022-12-03T21:50:06.796Z,0.3
2022-12-03T21:52:19.085Z,0.3
2022-12-03T21:54:28.152Z,0.31
2022-12-03T21:56:35.070Z,0.29
2022-12-03T21:58:48.839Z,0.29
2022-12-03T22:00:56.501Z,0.28
2022-12-03T22:03:10.195Z,0.26
2022-12-03T22:05:19.148Z,0.25
2022-12-03T22:07:34.623Z,0.25
2022-12-03T22:09:41.845Z,0.2
2022-12-03T22:11:49.081Z,0.16
2022-12-03T22:13:56.755Z,0.17
2022-12-03T22:16:04.740Z,0.18
2022-12-03T22:18:11.563Z,0.17
2022-12-03T22:20:18.237Z,0.16
2022-12-03T22:22:24.309Z,0.16
2022-12-03T22:24:31.326Z,0.19
2022-12-03T22:26:37.064Z,0.17
2022-12-03T22:28:43.531Z,0.14
2022-12-03T22:30:55.339Z,0.15
2022-12-03T22:33:06.758Z,0.15
2022-12-03T22:35:14.174Z,0.13
2022-12-03T22:37:24.716Z,0.16
2022-12-03T22:39:30.846Z,0.15
2022-12-03T22:41:36.530Z,0.14
2022-12-03T22:43:42.533Z,0.15
2022-12-03T22:45:47.905Z,0.13
2022-12-03T22:47:54.459Z,0.13
2022-12-03T22:50:00.669Z,0.13
2022-12-03T22:52:08.170Z,0.15
2022-12-03T22:54:13.841Z,0.16
2022-12-03T22:56:27.914Z,0.16
2022-12-03T22:58:34.110Z,0.16
2022-12-03T23:00:40.788Z,0.18
2022-12-03T23:02:46.546Z,0.17
2022-12-03T23:04:53.265Z,0.17
2022-12-03T23:06:59.179Z,0.21
2022-12-03T23:09:05.545Z,0.2
2022-12-03T23:13:38.344Z,0.18
2022-12-03T23:15:47.599Z,0.2
2022-12-03T23:17:54.503Z,0.19
2022-12-03T23:20:01.705Z,0.22
2022-12-03T23:22:07.760Z,0.19
2022-12-03T23:24:13.345Z,0.18
2022-12-03T23:26:19.271Z,0.18
2022-12-03T23:28:25.607Z,0.17
2022-12-03T23:30:33.623Z,0.11
2022-12-03T23:32:39.748Z,0.14
2022-12-03T23:34:46.355Z,0.15
2022-12-03T23:36:56.309Z,0.14
2022-12-03T23:39:05.524Z,0.14
2022-12-03T23:41:14.303Z,0.14
2022-12-03T23:43:23.270Z,0.15
2022-12-03T23:45:30.145Z,0.16
2022-12-03T23:47:36.726Z,0.15
2022-12-03T23:49:42.668Z,0.17
2022-12-03T23:51:48.176Z,0.17
2022-12-03T23:53:55.822Z,0.19
2022-12-03T23:56:01.487Z,0.17
2022-12-03T23:58:08.194Z,0.19
